Time;durP1;ratioP1;P1;durP2;ratioP2;P2;SDS_P1;SDS_P2;PMS_P1;PMS_P2;Temp;Humidity;BMP_temperature;BMP_pressure;BME280_temperature;BME280_humidity;BME280_pressure;Samples;Min_cycle;Max_cycle;Signal;HPM_P1;HPM_P2
2022/01/20 00:00:19;;;;;;;;;;;;;;;4.72;100.00;102381.47;5045197;28;19925;-79
2022/01/20 00:02:46;;;;;;;;;;;;;;;4.64;100.00;102389.53;5063803;28;19924;-79
2022/01/20 00:27:18;;;;;;;;;;;;;;;4.12;100.00;102429.44;5094278;28;20417;-78
2022/01/20 00:35:27;;;;;;;;;;;;;;;4.14;100.00;102428.75;5076691;28;20010;-80
2022/01/20 00:37:53;;;;;;;;;;;;;;;4.24;100.00;102425.28;5073470;28;19920;-80
2022/01/20 00:40:18;;;;;;;;;;;;;;;4.24;100.00;102433.09;5066625;28;19922;-79
2022/01/20 00:42:48;;;;;;;;;;;;;;;4.24;100.00;102427.91;5076713;28;19920;-80
2022/01/20 00:45:15;;;;;;;;;;;;;;;4.35;100.00;102417.47;5077011;28;19926;-79
2022/01/20 00:47:41;;;;;;;;;;;;;;;4.35;100.00;102420.06;5057479;28;19927;-80
2022/01/20 00:50:11;;;;;;;;;;;;;;;4.35;100.00;102421.00;5068341;28;20617;-81
2022/01/20 00:52:38;;;;;;;;;;;;;;;4.37;100.00;102423.75;5075561;28;19924;-80
2022/01/20 00:55:04;;;;;;;;;;;;;;;4.31;100.00;102417.19;5074392;28;19921;-79
2022/01/20 00:57:33;;;;;;;;;;;;;;;4.30;100.00;102422.28;5094913;28;20348;-79
2022/01/20 00:59:59;;;;;;;;;;;;;;;4.26;100.00;102426.31;5095643;28;19920;-80
2022/01/20 01:02:30;;;;;;;;;;;;;;;4.30;100.00;102422.28;5058020;28;19931;-79
2022/01/20 01:04:55;;;;;;;;;;;;;;;4.42;100.00;102430.25;5057470;28;19928;-79
2022/01/20 01:09:54;;;;;;;;;;;;;;;4.34;100.00;102441.72;5060456;28;19982;-81
2022/01/20 01:12:34;;;;;;;;;;;;;;;4.15;100.00;102440.13;5064566;28;19928;-80
2022/01/20 01:15:01;;;;;;;;;;;;;;;3.99;100.00;102447.38;5061128;28;20394;-80
2022/01/20 01:22:38;;;;;;;;;;;;;;;3.89;100.00;102417.88;5091829;28;19989;-78
2022/01/20 01:25:03;;;;;;;;;;;;;;;3.87;100.00;102423.75;5069934;28;20008;-78
2022/01/20 01:27:34;;;;;;;;;;;;;;;3.88;100.00;102421.25;5065444;28;19986;-79
2022/01/20 01:30:08;;;;;;;;;;;;;;;3.95;100.00;102418.44;5047616;28;19963;-79
2022/01/20 01:35:06;;;;;;;;;;;;;;;4.26;100.00;102428.94;5089997;28;19920;-79
2022/01/20 01:40:01;;;;;;;;;;;;;;;4.35;100.00;102422.66;5088699;28;20360;-79
2022/01/20 01:42:37;;;;;;;;;;;;;;;4.33;100.00;102419.94;5093645;28;19959;-79
2022/01/20 01:45:07;;;;;;;;;;;;;;;4.38;100.00;102426.47;5069526;28;19921;-80
2022/01/20 01:47:32;;;;;;;;;;;;;;;4.36;100.00;102442.78;5072185;28;19927;-79
2022/01/20 01:49:58;;;;;;;;;;;;;;;4.25;100.00;102449.66;5094324;28;19920;-78
2022/01/20 01:52:25;;;;;;;;;;;;;;;4.22;100.00;102454.59;5075807;28;19920;-81
2022/01/20 01:54:50;;;;;;;;;;;;;;;4.27;100.00;102468.94;5076678;28;19920;-81
2022/01/20 01:57:15;;;;;;;;;;;;;;;4.24;100.00;102461.78;5075983;28;19928;-79
2022/01/20 01:59:41;;;;;;;;;;;;;;;4.16;100.00;102460.19;5074827;28;19949;-80
2022/01/20 02:02:11;;;;;;;;;;;;;;;4.13;100.00;102466.06;5075886;28;19984;-81
2022/01/20 02:04:38;;;;;;;;;;;;;;;4.09;100.00;102468.28;5059169;28;19958;-81
2022/01/20 02:17:56;;;;;;;;;;;;;;;4.08;100.00;102466.44;5085122;28;19927;-80
2022/01/20 02:20:21;;;;;;;;;;;;;;;4.05;100.00;102467.06;5075437;28;20462;-80
2022/01/20 02:22:50;;;;;;;;;;;;;;;4.00;100.00;102462.25;5055767;28;20019;-80
2022/01/20 02:25:23;;;;;;;;;;;;;;;4.06;100.00;102465.41;5073374;28;20373;-78
2022/01/20 02:27:48;;;;;;;;;;;;;;;4.06;100.00;102463.69;5056398;28;19924;-79
2022/01/20 02:30:15;;;;;;;;;;;;;;;4.07;100.00;102461.97;5088914;28;19923;-78
2022/01/20 02:32:50;;;;;;;;;;;;;;;4.04;100.00;102454.84;5061482;28;19924;-81
2022/01/20 02:35:16;;;;;;;;;;;;;;;4.08;100.00;102449.09;5079680;28;19978;-78
2022/01/20 02:37:43;;;;;;;;;;;;;;;4.11;100.00;102448.44;5078358;28;19924;-78
2022/01/20 02:45:40;;;;;;;;;;;;;;;3.92;100.00;102448.53;5080369;28;19928;-80
2022/01/20 02:48:05;;;;;;;;;;;;;;;4.06;100.00;102452.34;5063908;28;19931;-78
2022/01/20 02:50:30;;;;;;;;;;;;;;;4.03;100.00;102460.81;5046081;28;19921;-81
2022/01/20 02:52:57;;;;;;;;;;;;;;;3.97;100.00;102456.75;5062290;28;19927;-80
2022/01/20 02:55:22;;;;;;;;;;;;;;;4.03;100.00;102444.28;5076310;28;19924;-80
2022/01/20 02:57:48;;;;;;;;;;;;;;;4.08;100.00;102445.56;5082219;28;19922;-80
2022/01/20 03:00:14;;;;;;;;;;;;;;;4.08;100.00;102448.19;5080819;28;19966;-79
2022/01/20 03:02:42;;;;;;;;;;;;;;;4.06;100.00;102448.03;5081031;28;19916;-79
2022/01/20 03:05:08;;;;;;;;;;;;;;;4.16;100.00;102456.69;5065451;28;19924;-80
2022/01/20 03:07:33;;;;;;;;;;;;;;;4.24;100.00;102453.97;5082010;28;20408;-79
2022/01/20 03:09:59;;;;;;;;;;;;;;;4.34;100.00;102455.69;5064881;28;19986;-80
2022/01/20 03:12:24;;;;;;;;;;;;;;;4.37;100.00;102444.59;5062931;28;20125;-79
2022/01/20 03:14:49;;;;;;;;;;;;;;;4.38;100.00;102452.56;5064111;28;19930;-79
2022/01/20 03:17:17;;;;;;;;;;;;;;;4.40;100.00;102460.53;5065710;28;19928;-80
2022/01/20 03:19:44;;;;;;;;;;;;;;;4.31;100.00;102464.13;5064759;28;20361;-81
2022/01/20 03:22:17;;;;;;;;;;;;;;;4.32;100.00;102458.16;5082226;28;19920;-81
2022/01/20 03:24:43;;;;;;;;;;;;;;;4.38;100.00;102463.00;5074843;28;19927;-80
2022/01/20 03:27:08;;;;;;;;;;;;;;;4.39;100.00;102466.50;5080470;28;19920;-81
2022/01/20 03:29:34;;;;;;;;;;;;;;;4.38;100.00;102478.66;5069464;28;20397;-79
2022/01/20 03:31:59;;;;;;;;;;;;;;;4.44;100.00;102473.97;5080903;28;19926;-80
2022/01/20 03:34:24;;;;;;;;;;;;;;;4.46;100.00;102468.88;5063763;28;19931;-81
2022/01/20 03:36:50;;;;;;;;;;;;;;;4.44;100.00;102473.97;5064614;28;19932;-80
2022/01/20 03:39:16;;;;;;;;;;;;;;;4.44;100.00;102471.34;5081610;28;19990;-78
2022/01/20 03:41:41;;;;;;;;;;;;;;;4.32;100.00;102479.00;5082895;28;19920;-80
2022/01/20 03:44:08;;;;;;;;;;;;;;;4.25;100.00;102476.63;5075987;28;19927;-79
2022/01/20 03:46:33;;;;;;;;;;;;;;;4.12;100.00;102485.09;5078956;28;19951;-77
2022/01/20 03:49:52;;;;;;;;;;;;;;;4.16;100.00;102491.47;5071946;28;20344;-81
2022/01/20 03:51:48;;;;;;;;;;;;;;;4.19;100.00;102489.13;5068391;28;19963;-79
2022/01/20 03:54:14;;;;;;;;;;;;;;;4.20;100.00;102497.91;5065193;28;19920;-79
2022/01/20 03:56:40;;;;;;;;;;;;;;;4.12;100.00;102492.91;5061898;28;20546;-79
2022/01/20 03:59:05;;;;;;;;;;;;;;;4.00;100.00;102497.03;5077651;28;19960;-78
2022/01/20 04:01:31;;;;;;;;;;;;;;;3.85;100.00;102500.88;5078367;28;20315;-79
2022/01/20 04:03:56;;;;;;;;;;;;;;;3.73;100.00;102490.28;5077333;28;19946;-78
2022/01/20 04:06:23;;;;;;;;;;;;;;;3.64;100.00;102500.78;5074998;28;19920;-80
2022/01/20 04:08:50;;;;;;;;;;;;;;;3.61;100.00;102507.41;5051918;28;19924;-79
2022/01/20 04:11:17;;;;;;;;;;;;;;;3.55;100.00;102506.06;5077662;28;19966;-76
2022/01/20 04:13:51;;;;;;;;;;;;;;;3.52;100.00;102505.78;5095604;28;20571;-79
2022/01/20 04:16:19;;;;;;;;;;;;;;;3.49;100.00;102497.69;5078645;28;20291;-78
2022/01/20 04:18:55;;;;;;;;;;;;;;;3.41;100.00;102490.88;5078153;28;19920;-79
2022/01/20 04:21:21;;;;;;;;;;;;;;;3.38;100.00;102486.28;5077320;28;19948;-78
2022/01/20 04:23:50;;;;;;;;;;;;;;;3.32;100.00;102492.66;5077859;28;19920;-79
2022/01/20 04:26:16;;;;;;;;;;;;;;;3.16;100.00;102491.25;5077456;28;20352;-78
2022/01/20 04:28:42;;;;;;;;;;;;;;;3.09;100.00;102500.94;5060165;28;19925;-78
2022/01/20 04:31:08;;;;;;;;;;;;;;;3.07;100.00;102495.59;5077028;28;19920;-78
2022/01/20 04:33:33;;;;;;;;;;;;;;;3.06;100.00;102501.56;5077853;28;19961;-82
2022/01/20 04:36:05;;;;;;;;;;;;;;;3.10;100.00;102501.09;5076133;28;19927;-80
2022/01/20 04:38:30;;;;;;;;;;;;;;;3.14;100.00;102510.06;5073835;28;19920;-79
2022/01/20 04:40:55;;;;;;;;;;;;;;;3.16;100.00;102512.06;5067883;28;19927;-80
2022/01/20 04:43:26;;;;;;;;;;;;;;;3.15;100.00;102514.53;5065734;28;19927;-81
2022/01/20 04:46:01;;;;;;;;;;;;;;;3.14;100.00;102517.88;5063613;28;20098;-81
2022/01/20 04:59:22;;;;;;;;;;;;;;;3.33;100.00;102573.50;5089202;28;20016;-80
2022/01/20 05:01:47;;;;;;;;;;;;;;;3.16;100.00;102564.13;5055459;28;19960;-81
2022/01/20 05:04:15;;;;;;;;;;;;;;;3.08;100.00;102564.16;5065991;28;20449;-83
2022/01/20 05:06:42;;;;;;;;;;;;;;;2.96;100.00;102567.47;5077323;28;19920;-83
2022/01/20 05:09:10;;;;;;;;;;;;;;;2.83;100.00;102580.09;5065595;28;19927;-79
2022/01/20 05:11:41;;;;;;;;;;;;;;;2.75;100.00;102562.84;5058179;28;19936;-82
2022/01/20 05:14:10;;;;;;;;;;;;;;;2.64;100.00;102559.22;5077136;28;19926;-79
2022/01/20 05:16:35;;;;;;;;;;;;;;;2.60;100.00;102558.00;5078771;28;19958;-79
2022/01/20 05:19:00;;;;;;;;;;;;;;;2.61;100.00;102564.13;5046976;28;19924;-79
2022/01/20 05:21:26;;;;;;;;;;;;;;;2.62;100.00;102566.88;5083537;28;19924;-80
2022/01/20 05:23:55;;;;;;;;;;;;;;;2.64;100.00;102570.56;5062114;28;19920;-80
2022/01/20 05:26:20;;;;;;;;;;;;;;;2.64;100.00;102575.75;5072301;28;19928;-81
2022/01/20 05:28:45;;;;;;;;;;;;;;;2.68;100.00;102577.84;5076971;28;19924;-81
2022/01/20 05:31:10;;;;;;;;;;;;;;;2.71;100.00;102572.03;5076807;28;20390;-80
2022/01/20 05:33:36;;;;;;;;;;;;;;;2.69;100.00;102568.38;5076423;28;20331;-80
2022/01/20 05:36:02;;;;;;;;;;;;;;;2.73;100.00;102578.28;5077000;28;19920;-81
2022/01/20 05:38:27;;;;;;;;;;;;;;;2.74;100.00;102584.44;5094429;28;19927;-81
2022/01/20 05:40:53;;;;;;;;;;;;;;;2.77;100.00;102588.22;5063418;28;19924;-81
2022/01/20 05:43:19;;;;;;;;;;;;;;;2.80;100.00;102591.13;5050068;28;20052;-80
2022/01/20 05:45:44;;;;;;;;;;;;;;;2.78;100.00;102590.06;5077070;28;19973;-82
2022/01/20 05:48:14;;;;;;;;;;;;;;;2.81;100.00;102602.44;5064179;28;20360;-79
2022/01/20 05:50:39;;;;;;;;;;;;;;;2.84;100.00;102605.34;5049918;28;20016;-82
2022/01/20 05:53:05;;;;;;;;;;;;;;;2.91;100.00;102612.06;5077716;28;19959;-81
2022/01/20 05:55:31;;;;;;;;;;;;;;;2.91;100.00;102617.25;5066914;28;20007;-80
2022/01/20 05:57:56;;;;;;;;;;;;;;;2.98;100.00;102618.00;5095189;28;20340;-80
2022/01/20 06:00:23;;;;;;;;;;;;;;;3.00;100.00;102626.84;5065436;28;19920;-79
2022/01/20 06:05:32;;;;;;;;;;;;;;;3.13;100.00;102635.81;5073647;28;19927;-80
2022/01/20 06:07:58;;;;;;;;;;;;;;;3.19;100.00;102639.91;5056586;28;19950;-80
2022/01/20 06:10:23;;;;;;;;;;;;;;;3.33;100.00;102645.50;5059416;28;19927;-81
2022/01/20 06:12:49;;;;;;;;;;;;;;;3.37;100.00;102651.16;5076152;28;19920;-80
2022/01/20 06:15:14;;;;;;;;;;;;;;;3.41;100.00;102657.56;5077048;28;20254;-80
2022/01/20 06:17:40;;;;;;;;;;;;;;;3.40;100.00;102663.53;5076140;28;19920;-80
2022/01/20 06:20:05;;;;;;;;;;;;;;;3.46;100.00;102674.53;5075893;28;19962;-81
2022/01/20 06:22:35;;;;;;;;;;;;;;;3.47;100.00;102678.97;5076005;28;19973;-79
2022/01/20 06:25:02;;;;;;;;;;;;;;;3.39;100.00;102682.56;5071420;28;20444;-79
2022/01/20 06:27:27;;;;;;;;;;;;;;;3.35;100.00;102685.63;5056176;28;20261;-81
2022/01/20 06:29:54;;;;;;;;;;;;;;;3.26;100.00;102690.88;5049246;28;19928;-81
2022/01/20 06:32:20;;;;;;;;;;;;;;;3.24;100.00;102698.53;5043441;28;19932;-80
2022/01/20 06:34:55;;;;;;;;;;;;;;;3.22;100.00;102720.91;5055465;28;19981;-80
2022/01/20 06:37:20;;;;;;;;;;;;;;;3.20;100.00;102722.47;5075313;28;20364;-80
2022/01/20 06:39:45;;;;;;;;;;;;;;;3.18;100.00;102715.25;5057943;28;19927;-81
2022/01/20 06:42:11;;;;;;;;;;;;;;;3.14;100.00;102714.06;5055939;28;19990;-81
2022/01/20 06:44:36;;;;;;;;;;;;;;;3.20;100.00;102718.91;5063784;28;19975;-81
2022/01/20 06:47:03;;;;;;;;;;;;;;;3.20;100.00;102734.53;5111099;28;19962;-82
2022/01/20 06:49:28;;;;;;;;;;;;;;;3.19;100.00;102736.25;5108842;28;19963;-82
2022/01/20 06:51:54;;;;;;;;;;;;;;;3.16;100.00;102748.97;5109491;28;20268;-82
2022/01/20 06:54:19;;;;;;;;;;;;;;;3.10;100.00;102740.56;5107845;28;19924;-82
2022/01/20 06:56:44;;;;;;;;;;;;;;;3.02;100.00;102741.53;5092761;28;19956;-81
2022/01/20 06:59:11;;;;;;;;;;;;;;;2.97;100.00;102755.78;5063811;28;19924;-82
2022/01/20 07:01:37;;;;;;;;;;;;;;;2.84;100.00;102757.19;5059105;28;19928;-83
2022/01/20 07:04:13;;;;;;;;;;;;;;;2.71;100.00;102759.34;5070743;28;19926;-83
2022/01/20 07:06:39;;;;;;;;;;;;;;;2.59;100.00;102763.34;5099451;28;20007;-82
2022/01/20 07:09:04;;;;;;;;;;;;;;;2.52;100.00;102782.63;5102163;28;19960;-83
2022/01/20 07:11:31;;;;;;;;;;;;;;;2.47;100.00;102776.97;5055985;28;19921;-81
2022/01/20 07:13:57;;;;;;;;;;;;;;;2.53;100.00;102787.03;5055702;28;19927;-81
2022/01/20 07:16:22;;;;;;;;;;;;;;;2.58;100.00;102780.63;5071399;28;19961;-81
2022/01/20 07:18:50;;;;;;;;;;;;;;;2.61;100.00;102786.16;5112383;28;20272;-82
2022/01/20 07:21:15;;;;;;;;;;;;;;;2.66;100.00;102791.81;5098793;28;19924;-81
2022/01/20 07:23:54;;;;;;;;;;;;;;;2.66;100.00;102802.22;5053182;28;20325;-81
2022/01/20 07:26:21;;;;;;;;;;;;;;;2.62;100.00;102793.16;5058195;28;19978;-82
2022/01/20 07:28:46;;;;;;;;;;;;;;;2.64;100.00;102790.72;5113286;28;20057;-79
2022/01/20 07:31:14;;;;;;;;;;;;;;;2.63;100.00;102799.31;5078639;28;20356;-80
2022/01/20 07:33:42;;;;;;;;;;;;;;;2.59;100.00;102789.34;5062982;28;19924;-83
2022/01/20 07:36:07;;;;;;;;;;;;;;;2.46;100.00;102785.53;5062312;28;19981;-81
2022/01/20 07:38:33;;;;;;;;;;;;;;;2.36;100.00;102784.44;5059158;28;20011;-81
2022/01/20 07:40:58;;;;;;;;;;;;;;;2.26;100.00;102772.22;5059685;28;20006;-81
2022/01/20 07:43:28;;;;;;;;;;;;;;;2.27;100.00;102776.63;5076375;28;20005;-82
2022/01/20 07:45:54;;;;;;;;;;;;;;;2.32;100.00;102789.34;5077622;28;20001;-80
2022/01/20 07:48:19;;;;;;;;;;;;;;;2.44;100.00;102784.47;5059063;28;20323;-80
2022/01/20 07:50:44;;;;;;;;;;;;;;;2.59;100.00;102800.66;5061264;28;20401;-82
2022/01/20 07:53:22;;;;;;;;;;;;;;;2.60;100.00;102812.00;5078966;28;20007;-81
2022/01/20 07:55:47;;;;;;;;;;;;;;;2.67;100.00;102824.84;5079279;28;19920;-81
2022/01/20 07:58:12;;;;;;;;;;;;;;;2.67;100.00;102838.78;5094066;28;19931;-80
2022/01/20 08:00:37;;;;;;;;;;;;;;;2.72;100.00;102823.63;5058459;28;19963;-81
2022/01/20 08:03:07;;;;;;;;;;;;;;;2.79;100.00;102833.84;5058499;28;19955;-81
2022/01/20 08:05:32;;;;;;;;;;;;;;;2.85;100.00;102831.84;5045468;28;19920;-81
2022/01/20 08:07:57;;;;;;;;;;;;;;;2.81;100.00;102823.59;5057090;28;19920;-81
2022/01/20 08:10:22;;;;;;;;;;;;;;;2.76;100.00;102830.94;5058553;28;20341;-81
2022/01/20 08:12:50;;;;;;;;;;;;;;;2.72;100.00;102831.44;5058597;28;19928;-80
2022/01/20 08:15:15;;;;;;;;;;;;;;;2.65;100.00;102829.88;5076053;28;19925;-81
2022/01/20 08:17:41;;;;;;;;;;;;;;;2.60;100.00;102833.72;5058489;28;20330;-81
2022/01/20 08:20:07;;;;;;;;;;;;;;;2.61;100.00;102832.97;5058627;28;20325;-82
2022/01/20 08:22:40;;;;;;;;;;;;;;;2.64;100.00;102832.34;5057565;28;19974;-82
2022/01/20 08:25:10;;;;;;;;;;;;;;;2.71;100.00;102829.59;5058205;28;19924;-82
2022/01/20 08:27:40;;;;;;;;;;;;;;;2.77;100.00;102829.28;5058163;28;19939;-81
2022/01/20 08:30:07;;;;;;;;;;;;;;;2.88;100.00;102829.56;5057821;28;20011;-84
2022/01/20 08:32:40;;;;;;;;;;;;;;;2.93;100.00;102822.22;5066602;28;19924;-82
2022/01/20 08:35:08;;;;;;;;;;;;;;;3.03;100.00;102830.16;5075385;28;19950;-82
2022/01/20 08:37:34;;;;;;;;;;;;;;;3.06;100.00;102832.13;5074461;28;20007;-81
2022/01/20 08:40:00;;;;;;;;;;;;;;;3.08;100.00;102834.88;5074783;28;19951;-83
2022/01/20 08:42:33;;;;;;;;;;;;;;;3.15;100.00;102837.34;5074586;28;19932;-82
2022/01/20 08:44:59;;;;;;;;;;;;;;;3.16;100.00;102844.38;5074612;28;19928;-82
2022/01/20 08:47:27;;;;;;;;;;;;;;;3.16;100.00;102845.28;5072822;28;19921;-82
2022/01/20 08:49:52;;;;;;;;;;;;;;;3.20;100.00;102846.50;5074684;28;20641;-83
2022/01/20 08:52:21;;;;;;;;;;;;;;;3.24;100.00;102853.84;5074693;28;20007;-82
2022/01/20 08:54:47;;;;;;;;;;;;;;;3.30;100.00;102858.75;5071395;28;20376;-82
2022/01/20 08:57:12;;;;;;;;;;;;;;;3.38;100.00;102866.53;5074588;28;19921;-82
2022/01/20 08:59:40;;;;;;;;;;;;;;;3.42;100.00;102860.84;5073787;28;20023;-83
2022/01/20 09:02:10;;;;;;;;;;;;;;;3.45;100.00;102870.66;5074511;28;19928;-82
2022/01/20 09:04:36;;;;;;;;;;;;;;;3.50;100.00;102884.13;5074322;28;20373;-82
2022/01/20 09:07:01;;;;;;;;;;;;;;;3.52;100.00;102909.53;5074620;28;19920;-80
2022/01/20 09:09:26;;;;;;;;;;;;;;;3.54;100.00;102923.66;5074074;28;19920;-82
2022/01/20 09:12:18;;;;;;;;;;;;;;;3.32;100.00;102922.31;5074358;28;20411;-83
2022/01/20 09:17:30;;;;;;;;;;;;;;;3.10;100.00;102916.66;5087970;28;20003;-80
2022/01/20 09:19:56;;;;;;;;;;;;;;;3.07;100.00;102927.69;5084618;28;19920;-80
2022/01/20 09:22:27;;;;;;;;;;;;;;;3.11;100.00;102928.91;5079403;28;20014;-82
2022/01/20 09:24:53;;;;;;;;;;;;;;;3.29;100.00;102925.50;5077593;28;20014;-82
2022/01/20 09:27:18;;;;;;;;;;;;;;;3.45;100.00;102920.16;5077139;28;19959;-82
2022/01/20 09:29:45;;;;;;;;;;;;;;;3.67;100.00;102917.03;5075108;28;19920;-82
2022/01/20 09:32:16;;;;;;;;;;;;;;;3.73;100.00;102917.63;5073889;28;19920;-82
2022/01/20 09:34:43;;;;;;;;;;;;;;;3.78;100.00;102926.81;5075399;28;20213;-81
2022/01/20 09:37:08;;;;;;;;;;;;;;;3.78;100.00;102930.31;5073842;28;19924;-82
2022/01/20 09:39:37;;;;;;;;;;;;;;;3.78;100.00;102918.97;5071911;28;19920;-82
2022/01/20 09:42:04;;;;;;;;;;;;;;;3.80;100.00;102922.63;5071983;28;19928;-82
2022/01/20 09:44:29;;;;;;;;;;;;;;;3.80;100.00;102917.44;5070140;28;20392;-84
2022/01/20 09:46:54;;;;;;;;;;;;;;;3.82;100.00;102922.78;5072874;28;19924;-83
2022/01/20 09:49:21;;;;;;;;;;;;;;;3.81;100.00;102919.28;5072577;28;19916;-82
2022/01/20 09:51:46;;;;;;;;;;;;;;;3.85;100.00;102926.59;5072495;28;19925;-83
2022/01/20 09:54:12;;;;;;;;;;;;;;;3.92;100.00;102926.44;5072316;28;19921;-82
2022/01/20 09:56:41;;;;;;;;;;;;;;;3.96;100.00;102935.44;5071799;28;20040;-83
2022/01/20 09:59:07;;;;;;;;;;;;;;;3.97;100.00;102932.09;5057138;28;20383;-83
2022/01/20 10:01:47;;;;;;;;;;;;;;;4.01;100.00;102942.06;5072727;28;19916;-84
2022/01/20 10:04:21;;;;;;;;;;;;;;;4.02;100.00;102956.00;5072674;28;19920;-83
2022/01/20 10:06:53;;;;;;;;;;;;;;;3.59;100.00;102992.75;5074208;28;19920;-79
2022/01/20 10:09:29;;;;;;;;;;;;;;;3.18;100.00;102992.16;5074623;28;19924;-82
2022/01/20 10:11:55;;;;;;;;;;;;;;;3.07;100.00;102977.16;5073788;28;19947;-84
2022/01/20 10:14:20;;;;;;;;;;;;;;;3.11;100.00;102975.75;5073820;28;20356;-82
2022/01/20 10:16:46;;;;;;;;;;;;;;;3.19;100.00;102967.97;5074099;28;20413;-82
2022/01/20 10:19:20;;;;;;;;;;;;;;;3.23;100.00;102979.59;5073011;28;19921;-81
2022/01/20 10:21:46;;;;;;;;;;;;;;;3.23;100.00;102977.94;5073842;28;19959;-83
2022/01/20 10:24:12;;;;;;;;;;;;;;;3.21;100.00;102979.44;5072302;28;19920;-84
2022/01/20 10:26:38;;;;;;;;;;;;;;;3.18;100.00;102981.72;5072339;28;19920;-81
2022/01/20 10:29:08;;;;;;;;;;;;;;;3.24;100.00;102997.06;5072794;28;19924;-82
2022/01/20 10:31:45;;;;;;;;;;;;;;;3.43;100.00;103002.41;5071779;28;19927;-82
2022/01/20 10:34:19;;;;;;;;;;;;;;;3.52;100.00;103003.31;5072773;28;19927;-80
2022/01/20 10:36:54;;;;;;;;;;;;;;;3.71;100.00;103007.75;5072245;28;19927;-82
2022/01/20 10:39:26;;;;;;;;;;;;;;;3.83;100.00;103014.16;5071459;28;19978;-82
2022/01/20 10:41:56;;;;;;;;;;;;;;;4.10;100.00;102999.34;5071976;28;20360;-82
2022/01/20 10:44:21;;;;;;;;;;;;;;;4.33;100.00;102998.97;5072041;28;19931;-84
2022/01/20 10:46:48;;;;;;;;;;;;;;;4.31;100.00;103011.84;5071514;28;19920;-83
2022/01/20 10:49:14;;;;;;;;;;;;;;;4.16;100.00;103014.69;5072568;28;19920;-84
2022/01/20 10:51:40;;;;;;;;;;;;;;;4.08;100.00;103019.16;5072159;28;19924;-82
2022/01/20 10:54:07;;;;;;;;;;;;;;;4.19;100.00;103031.53;5075115;28;19925;-81
2022/01/20 10:56:50;;;;;;;;;;;;;;;4.30;100.00;103020.47;5076004;28;19928;-82
2022/01/20 10:59:16;;;;;;;;;;;;;;;4.63;100.00;103034.91;5075947;28;19925;-80
2022/01/20 11:01:41;;;;;;;;;;;;;;;4.80;100.00;103030.34;5075794;28;20053;-82
2022/01/20 11:04:06;;;;;;;;;;;;;;;4.78;100.00;103024.06;5075719;28;20276;-81
2022/01/20 11:06:36;;;;;;;;;;;;;;;4.72;100.00;103016.56;5075678;28;19968;-82
2022/01/20 11:09:04;;;;;;;;;;;;;;;4.56;100.00;103015.91;5075087;28;19974;-82
2022/01/20 11:11:29;;;;;;;;;;;;;;;4.47;100.00;102997.66;5075913;28;19921;-82
2022/01/20 11:13:56;;;;;;;;;;;;;;;4.45;100.00;103004.44;5078487;28;19993;-81
2022/01/20 11:16:21;;;;;;;;;;;;;;;4.41;100.00;103005.84;5076240;28;19959;-85
2022/01/20 11:18:48;;;;;;;;;;;;;;;4.35;100.00;103012.16;5077410;28;19948;-82
2022/01/20 11:21:22;;;;;;;;;;;;;;;4.41;100.00;102999.69;5075419;28;19931;-81
2022/01/20 11:23:47;;;;;;;;;;;;;;;4.36;100.00;103019.22;5075380;28;19920;-80
2022/01/20 11:26:12;;;;;;;;;;;;;;;4.12;100.00;103010.88;5076405;28;19920;-81
2022/01/20 11:28:38;;;;;;;;;;;;;;;3.97;100.00;103030.25;5075524;28;19959;-81
2022/01/20 11:31:05;;;;;;;;;;;;;;;3.71;100.00;103026.94;5076657;28;19921;-82
2022/01/20 11:33:41;;;;;;;;;;;;;;;3.75;100.00;103018.63;5079476;28;19927;-82
2022/01/20 11:36:21;;;;;;;;;;;;;;;3.77;100.00;103008.34;5074591;28;20276;-82
2022/01/20 11:38:49;;;;;;;;;;;;;;;3.77;100.00;103003.13;5078928;28;19920;-82
2022/01/20 11:41:17;;;;;;;;;;;;;;;3.76;100.00;103007.44;5079549;28;19916;-82
2022/01/20 11:43:52;;;;;;;;;;;;;;;3.74;100.00;103000.22;5078849;28;20280;-83
2022/01/20 11:46:22;;;;;;;;;;;;;;;3.69;100.00;103006.69;5079084;28;19921;-82
2022/01/20 11:49:02;;;;;;;;;;;;;;;3.74;100.00;103000.22;5078544;28;19927;-80
2022/01/20 11:51:44;;;;;;;;;;;;;;;3.90;100.00;102998.38;5079042;28;19992;-82
2022/01/20 11:54:10;;;;;;;;;;;;;;;3.90;100.00;102981.78;5078753;28;20011;-82
2022/01/20 11:56:40;;;;;;;;;;;;;;;3.97;100.00;102985.94;5080324;28;19928;-83
2022/01/20 11:59:07;;;;;;;;;;;;;;;4.07;100.00;102986.97;5080253;28;20111;-84
2022/01/20 12:01:48;;;;;;;;;;;;;;;4.36;100.00;102978.38;5081034;28;20376;-84
2022/01/20 12:04:15;;;;;;;;;;;;;;;4.69;100.00;102971.91;5077683;28;20405;-84
2022/01/20 12:06:46;;;;;;;;;;;;;;;4.79;100.00;102973.69;5080973;28;19920;-83
2022/01/20 12:09:13;;;;;;;;;;;;;;;4.94;100.00;102963.75;5080406;28;19920;-83
2022/01/20 12:11:45;;;;;;;;;;;;;;;4.90;100.00;102970.38;5096096;28;19974;-83
2022/01/20 12:14:11;;;;;;;;;;;;;;;4.74;100.00;102955.00;5097046;28;19920;-84
2022/01/20 12:16:37;;;;;;;;;;;;;;;4.64;100.00;102947.97;5080666;28;19967;-83
2022/01/20 12:19:05;;;;;;;;;;;;;;;4.63;100.00;102953.06;5078389;28;20640;-86
2022/01/20 12:21:30;;;;;;;;;;;;;;;4.52;100.00;102945.91;5059838;28;19925;-84
2022/01/20 12:24:00;;;;;;;;;;;;;;;4.46;100.00;102952.41;5092979;28;19924;-80
2022/01/20 12:26:26;;;;;;;;;;;;;;;4.36;100.00;102948.78;5079950;28;19931;-85
2022/01/20 12:29:01;;;;;;;;;;;;;;;4.29;100.00;102965.56;5080522;28;19920;-83
2022/01/20 12:31:27;;;;;;;;;;;;;;;4.27;100.00;102968.00;5078159;28;19931;-84
2022/01/20 12:33:54;;;;;;;;;;;;;;;4.30;100.00;102967.38;5079338;28;19920;-83
2022/01/20 12:36:19;;;;;;;;;;;;;;;4.39;100.00;102965.63;5077115;28;19920;-81
2022/01/20 12:38:45;;;;;;;;;;;;;;;4.57;100.00;102968.13;5078090;28;19980;-82
2022/01/20 12:41:12;;;;;;;;;;;;;;;4.63;100.00;102971.31;5077702;28;19923;-81
2022/01/20 12:43:42;;;;;;;;;;;;;;;4.68;100.00;102985.75;5095385;28;20461;-82
2022/01/20 12:46:08;;;;;;;;;;;;;;;4.87;100.00;102975.31;5078908;28;19920;-83
2022/01/20 12:48:34;;;;;;;;;;;;;;;5.09;100.00;102975.59;5078582;28;19916;-81
2022/01/20 12:51:01;;;;;;;;;;;;;;;5.14;100.00;102968.19;5062631;28;19931;-80
2022/01/20 12:53:33;;;;;;;;;;;;;;;5.07;100.00;102982.41;5077481;28;20360;-81
2022/01/20 12:55:58;;;;;;;;;;;;;;;4.78;100.00;102975.38;5079378;28;19976;-81
2022/01/20 12:58:23;;;;;;;;;;;;;;;4.75;100.00;102963.75;5079438;28;19924;-83
2022/01/20 13:01:00;;;;;;;;;;;;;;;4.62;100.00;102962.59;5079795;28;19927;-82
2022/01/20 13:03:37;;;;;;;;;;;;;;;4.68;100.00;102964.88;5078232;28;19958;-83
2022/01/20 13:06:03;;;;;;;;;;;;;;;4.78;100.00;102971.84;5076339;28;19955;-82
2022/01/20 13:08:35;;;;;;;;;;;;;;;4.87;100.00;102980.53;5067065;28;19920;-82
2022/01/20 13:11:02;;;;;;;;;;;;;;;4.78;100.00;102984.91;5078376;28;19964;-79
2022/01/20 13:13:28;;;;;;;;;;;;;;;4.54;100.00;102983.50;5087822;28;20275;-78
2022/01/20 13:15:54;;;;;;;;;;;;;;;4.44;100.00;102992.16;5078263;28;20018;-82
2022/01/20 13:18:23;;;;;;;;;;;;;;;4.27;100.00;102981.06;5078117;28;20322;-83
2022/01/20 13:20:54;;;;;;;;;;;;;;;4.27;100.00;102995.75;5077474;28;19926;-83
2022/01/20 13:25:46;;;;;;;;;;;;;;;4.22;100.00;102997.03;5094906;28;19924;-81
2022/01/20 13:28:11;;;;;;;;;;;;;;;4.29;100.00;102995.16;5077857;28;19916;-82
2022/01/20 13:30:40;;;;;;;;;;;;;;;4.35;100.00;102991.28;5077390;28;19924;-82
2022/01/20 13:33:24;;;;;;;;;;;;;;;4.53;100.00;102990.41;5075932;28;19960;-84
2022/01/20 13:35:56;;;;;;;;;;;;;;;4.70;100.00;102999.84;5072508;28;19954;-83
2022/01/20 13:38:29;;;;;;;;;;;;;;;4.80;100.00;103009.44;5072871;28;19921;-82
2022/01/20 13:41:06;;;;;;;;;;;;;;;4.34;100.00;103026.00;5058063;28;20021;-84
2022/01/20 13:46:20;;;;;;;;;;;;;;;3.61;100.00;103020.66;5075370;28;19931;-82
2022/01/20 13:48:45;;;;;;;;;;;;;;;3.53;100.00;103019.91;5056949;28;19929;-82
2022/01/20 13:51:14;;;;;;;;;;;;;;;3.52;100.00;103015.44;5066494;28;19977;-83
2022/01/20 13:53:53;;;;;;;;;;;;;;;3.55;100.00;103014.03;5078417;28;20421;-83
2022/01/20 13:56:19;;;;;;;;;;;;;;;3.58;100.00;103008.22;5063111;28;19920;-83